Time;durP1;ratioP1;P1;durP2;ratioP2;P2;SDS_P1;SDS_P2;PMS_P1;PMS_P2;Temp;Humidity;BMP_temperature;BMP_pressure;BME280_temperature;BME280_humidity;BME280_pressure;Samples;Min_cycle;Max_cycle;Signal;HPM_P1;HPM_P2
2022/03/17 00:00:36;;;;;;;21.42;12.32;;;10.40;99.90;;;;;;5048364;28;20040;-80
2022/03/17 00:03:01;;;;;;;18.20;12.10;;;10.40;99.90;;;;;;5047232;28;20154;-80
2022/03/17 00:05:27;;;;;;;21.45;12.80;;;10.40;99.90;;;;;;5031754;28;20040;-81
2022/03/17 00:07:53;;;;;;;25.00;12.15;;;10.30;99.90;;;;;;5047998;28;20040;-81
2022/03/17 00:10:19;;;;;;;19.05;13.00;;;10.30;99.90;;;;;;5048510;28;20049;-81
2022/03/17 00:12:46;;;;;;;23.23;13.23;;;10.30;99.90;;;;;;5032055;28;20032;-81
2022/03/17 00:15:12;;;;;;;23.38;13.38;;;10.30;99.90;;;;;;5064602;28;20498;-81
2022/03/17 00:17:40;;;;;;;20.63;12.25;;;10.30;99.90;;;;;;5047913;28;20055;-81
2022/03/17 00:20:07;;;;;;;23.65;13.43;;;10.30;99.90;;;;;;5031191;28;20048;-81
2022/03/17 00:22:33;;;;;;;21.90;12.93;;;10.30;99.90;;;;;;5066332;28;20056;-81
2022/03/17 00:24:59;;;;;;;24.67;12.95;;;10.30;99.90;;;;;;5066035;28;20044;-81
2022/03/17 00:27:25;;;;;;;20.63;12.40;;;10.30;99.90;;;;;;5066040;28;20070;-79
2022/03/17 00:29:52;;;;;;;22.42;13.63;;;10.30;99.90;;;;;;5065911;28;20052;-80
2022/03/17 00:32:17;;;;;;;21.23;12.32;;;10.30;99.90;;;;;;5064240;28;20049;-80
2022/03/17 00:37:27;;;;;;;23.98;12.77;;;10.30;99.90;;;;;;5050578;28;20560;-81
2022/03/17 00:39:53;;;;;;;22.23;13.27;;;9.80;99.90;;;;;;5064747;28;20044;-81
2022/03/17 00:42:20;;;;;;;23.30;12.75;;;10.30;99.90;;;;;;5047602;28;20037;-81
2022/03/17 00:44:47;;;;;;;25.60;13.93;;;10.20;99.90;;;;;;5048140;28;20369;-81
2022/03/17 00:47:14;;;;;;;22.58;12.32;;;10.20;99.90;;;;;;5031902;28;20045;-81
2022/03/17 00:49:40;;;;;;;22.73;12.93;;;10.20;99.90;;;;;;5047967;28;20045;-81
2022/03/17 00:52:11;;;;;;;23.65;13.30;;;10.40;99.90;;;;;;5048051;28;20400;-80
2022/03/17 00:54:41;;;;;;;23.25;13.65;;;10.20;99.90;;;;;;5065732;28;20044;-81
2022/03/17 00:57:09;;;;;;;21.08;13.30;;;10.20;99.90;;;;;;5064317;28;20044;-80
2022/03/17 00:59:38;;;;;;;24.50;14.02;;;10.20;99.90;;;;;;5064297;28;20048;-81
2022/03/17 01:02:04;;;;;;;20.77;12.70;;;11.10;99.90;;;;;;5063808;28;20123;-81
2022/03/17 01:04:30;;;;;;;25.88;14.05;;;10.20;99.90;;;;;;5064574;28;20044;-81
2022/03/17 01:06:56;;;;;;;21.48;13.82;;;10.90;99.90;;;;;;5063844;28;20400;-81
2022/03/17 01:09:22;;;;;;;21.48;13.48;;;10.30;99.90;;;;;;5065731;28;20128;-81
2022/03/17 01:11:49;;;;;;;24.77;14.02;;;10.10;99.90;;;;;;5047329;28;20500;-81
2022/03/17 01:14:15;;;;;;;24.58;13.65;;;10.10;99.90;;;;;;5066218;28;20055;-81
2022/03/17 01:16:42;;;;;;;22.30;14.10;;;10.10;99.90;;;;;;5068321;28;20443;-81
2022/03/17 01:19:07;;;;;;;24.65;14.68;;;10.10;99.90;;;;;;5069300;28;20142;-81
2022/03/17 01:21:34;;;;;;;22.00;13.38;;;10.10;99.90;;;;;;5067661;28;20092;-81
2022/03/17 01:24:00;;;;;;;25.30;14.02;;;10.10;99.90;;;;;;5035147;28;20414;-81
2022/03/17 01:26:26;;;;;;;24.20;13.73;;;10.10;99.90;;;;;;5067578;28;20043;-81
2022/03/17 01:28:52;;;;;;;23.95;13.77;;;10.20;99.90;;;;;;5051362;28;20048;-81
2022/03/17 01:31:22;;;;;;;22.83;13.55;;;10.00;99.90;;;;;;5051477;28;20086;-81
2022/03/17 01:33:47;;;;;;;27.15;14.02;;;10.10;99.90;;;;;;5067856;28;20044;-81
2022/03/17 01:36:13;;;;;;;22.75;14.68;;;10.00;99.90;;;;;;5067089;28;20128;-81
2022/03/17 01:38:39;;;;;;;22.00;14.02;;;10.60;99.90;;;;;;5051054;28;20568;-82
2022/03/17 01:41:04;;;;;;;25.20;14.05;;;10.00;99.90;;;;;;5067270;28;20109;-81
2022/03/17 01:43:30;;;;;;;23.55;13.82;;;10.10;99.90;;;;;;5034557;28;20044;-81
2022/03/17 01:45:55;;;;;;;25.55;13.00;;;10.20;99.90;;;;;;5069317;28;20047;-81
2022/03/17 01:48:21;;;;;;;23.05;14.63;;;10.00;99.90;;;;;;5051291;28;20044;-81
2022/03/17 01:50:49;;;;;;;22.20;14.13;;;10.00;99.90;;;;;;5068076;28;20423;-81
2022/03/17 01:53:15;;;;;;;19.17;12.27;;;10.00;99.90;;;;;;5067005;28;20080;-81
2022/03/17 01:55:41;;;;;;;25.70;14.43;;;10.00;99.90;;;;;;5067688;28;20056;-80
2022/03/17 01:58:07;;;;;;;25.60;14.82;;;9.90;99.90;;;;;;5067634;28;20041;-81
2022/03/17 02:00:33;;;;;;;24.65;14.88;;;10.80;99.90;;;;;;5068747;28;20120;-81
2022/03/17 02:02:59;;;;;;;23.77;14.75;;;10.40;99.90;;;;;;5069109;28;20093;-81
2022/03/17 02:05:26;;;;;;;24.38;14.48;;;9.90;99.90;;;;;;5067654;28;20048;-80
2022/03/17 02:07:52;;;;;;;20.45;13.40;;;9.90;99.90;;;;;;5067247;28;20040;-80
2022/03/17 02:10:20;;;;;;;21.27;13.88;;;9.90;99.90;;;;;;5068402;28;20044;-81
2022/03/17 02:15:34;;;;;;;24.65;14.50;;;9.90;99.90;;;;;;5067654;28;20044;-81
2022/03/17 02:18:02;;;;;;;20.63;13.73;;;9.90;99.90;;;;;;5067189;28;20492;-81
2022/03/17 02:20:28;;;;;;;19.73;13.38;;;9.90;99.90;;;;;;5066385;28;20065;-81
2022/03/17 02:25:33;;;;;;;27.70;15.52;;;9.90;99.90;;;;;;5050240;28;20048;-81
2022/03/17 02:25:49;;;;;;;21.83;14.10;;;9.90;99.90;;;;;;5066070;28;20476;-81
2022/03/17 02:28:15;;;;;;;27.17;14.90;;;10.00;99.90;;;;;;5067015;28;20057;-81
2022/03/17 02:30:41;;;;;;;25.23;13.73;;;10.00;99.90;;;;;;5067850;28;20094;-81
2022/03/17 02:33:10;;;;;;;21.92;13.35;;;10.00;99.90;;;;;;5066938;28;20048;-81
2022/03/17 02:35:37;;;;;;;24.50;15.00;;;10.20;99.90;;;;;;5066193;28;20125;-81
2022/03/17 02:38:04;;;;;;;25.80;14.07;;;10.00;99.90;;;;;;5050082;28;20056;-81
2022/03/17 02:40:31;;;;;;;21.33;14.00;;;10.00;99.90;;;;;;5066057;28;20092;-81
2022/03/17 02:42:57;;;;;;;23.02;14.38;;;10.70;99.90;;;;;;5067853;28;20071;-81
2022/03/17 02:45:23;;;;;;;21.65;13.95;;;10.00;99.90;;;;;;5067917;28;20051;-81
2022/03/17 02:47:52;;;;;;;25.48;14.25;;;10.00;99.90;;;;;;5066382;28;20663;-81
2022/03/17 02:50:18;;;;;;;24.17;14.05;;;10.00;99.90;;;;;;5066731;28;20174;-81
2022/03/17 02:52:44;;;;;;;27.52;16.10;;;10.00;99.90;;;;;;5067482;28;20156;-80
2022/03/17 02:55:11;;;;;;;26.98;15.35;;;10.10;99.90;;;;;;5050152;28;20408;-81
2022/03/17 02:57:41;;;;;;;24.25;14.48;;;10.00;99.90;;;;;;5066783;28;20910;-81
2022/03/17 03:00:09;;;;;;;23.70;15.23;;;10.00;99.90;;;;;;5065905;28;20504;-81
2022/03/17 03:02:36;;;;;;;25.73;15.32;;;10.00;99.90;;;;;;5065975;28;20080;-81
2022/03/17 03:05:06;;;;;;;24.40;14.40;;;10.00;99.90;;;;;;5065810;28;20090;-80
2022/03/17 03:07:32;;;;;;;22.48;14.23;;;10.00;99.90;;;;;;5067490;28;20083;-81
2022/03/17 03:09:58;;;;;;;25.40;14.70;;;10.00;99.90;;;;;;5066110;28;20080;-81
2022/03/17 03:12:24;;;;;;;22.90;13.90;;;10.00;99.90;;;;;;5066746;28;20067;-80
2022/03/17 03:14:50;;;;;;;23.67;13.32;;;10.00;99.90;;;;;;5067311;28;20536;-80
2022/03/17 03:17:16;;;;;;;22.02;14.45;;;10.00;99.90;;;;;;5049278;28;20097;-81
2022/03/17 03:19:43;;;;;;;22.73;15.20;;;10.00;99.90;;;;;;5067394;28;20415;-81
2022/03/17 03:22:08;;;;;;;20.23;14.48;;;10.00;99.90;;;;;;5065431;28;20668;-81
2022/03/17 03:24:36;;;;;;;24.73;14.82;;;10.20;99.90;;;;;;5067348;28;20499;-81
2022/03/17 03:27:03;;;;;;;26.13;14.43;;;10.00;99.90;;;;;;5049750;28;20709;-81
2022/03/17 03:29:29;;;;;;;26.83;14.70;;;10.00;99.90;;;;;;5032437;28;20044;-80
2022/03/17 03:32:00;;;;;;;26.95;15.77;;;10.00;99.90;;;;;;5065083;28;20045;-80
2022/03/17 03:34:27;;;;;;;26.13;15.95;;;10.00;99.90;;;;;;5065295;28;20052;-80
2022/03/17 03:39:39;;;;;;;24.48;14.90;;;10.00;99.90;;;;;;5065448;28;20487;-80
2022/03/17 03:42:07;;;;;;;23.83;15.52;;;10.10;99.90;;;;;;5049400;28;20453;-80
2022/03/17 03:44:33;;;;;;;28.10;16.67;;;10.20;99.90;;;;;;5032507;28;20467;-80
2022/03/17 03:46:59;;;;;;;26.55;15.40;;;10.20;99.90;;;;;;5065096;28;20091;-80
2022/03/17 03:49:24;;;;;;;23.10;14.60;;;10.40;99.90;;;;;;5065126;28;20095;-80
2022/03/17 03:51:50;;;;;;;24.17;16.48;;;10.40;99.90;;;;;;5048593;28;20056;-80
2022/03/17 03:54:17;;;;;;;24.90;16.27;;;10.50;99.90;;;;;;5048594;28;20044;-80
2022/03/17 03:56:46;;;;;;;26.33;15.40;;;10.50;99.90;;;;;;5066434;28;20051;-80
2022/03/17 03:59:22;;;;;;;27.05;15.68;;;10.60;99.90;;;;;;5065122;28;20056;-80
2022/03/17 04:01:50;;;;;;;25.33;14.52;;;10.60;99.90;;;;;;5064607;28;20480;-81
2022/03/17 04:04:19;;;;;;;24.50;14.75;;;11.40;99.90;;;;;;5064790;28;20121;-81
2022/03/17 04:06:47;;;;;;;29.40;16.85;;;10.60;99.90;;;;;;5065285;28;20377;-81
2022/03/17 04:09:14;;;;;;;24.15;15.85;;;10.70;99.90;;;;;;5048191;28;20072;-81
2022/03/17 04:11:41;;;;;;;26.27;16.58;;;10.70;99.90;;;;;;5066840;28;20040;-81
2022/03/17 04:14:07;;;;;;;25.23;16.20;;;10.70;99.90;;;;;;5064429;28;20036;-81
2022/03/17 04:16:34;;;;;;;28.13;16.13;;;10.70;99.90;;;;;;5065422;28;20040;-80
2022/03/17 04:18:59;;;;;;;24.45;16.38;;;10.90;99.90;;;;;;5064433;28;20523;-80
2022/03/17 04:21:26;;;;;;;24.20;16.58;;;10.60;99.90;;;;;;5064648;28;20083;-80
2022/03/17 04:23:51;;;;;;;26.92;16.52;;;10.50;99.90;;;;;;5065052;28;20495;-80
2022/03/17 04:26:17;;;;;;;26.63;17.88;;;10.50;99.90;;;;;;5031353;28;20037;-80
2022/03/17 04:28:43;;;;;;;28.77;18.85;;;10.40;99.90;;;;;;5048342;28;20094;-80
2022/03/17 04:31:09;;;;;;;25.85;18.23;;;10.30;99.90;;;;;;5048120;28;20131;-81
2022/03/17 04:33:35;;;;;;;26.98;18.73;;;10.30;99.90;;;;;;5066536;28;20047;-80
2022/03/17 04:36:05;;;;;;;29.15;19.50;;;10.30;99.90;;;;;;5047657;28;20051;-80
2022/03/17 04:38:32;;;;;;;30.80;18.92;;;10.20;99.90;;;;;;5048383;28;20040;-80
2022/03/17 04:40:57;;;;;;;29.20;19.58;;;10.40;99.90;;;;;;5065992;28;20044;-80
2022/03/17 04:43:23;;;;;;;29.13;19.38;;;10.10;99.90;;;;;;5064837;28;20039;-80
2022/03/17 04:45:49;;;;;;;35.17;20.60;;;10.10;99.90;;;;;;5048669;28;20032;-81
2022/03/17 04:48:15;;;;;;;38.33;22.08;;;10.00;99.90;;;;;;5065615;28;20052;-81
2022/03/17 04:50:41;;;;;;;30.00;21.05;;;10.00;99.90;;;;;;5068466;28;20101;-79
2022/03/17 04:55:53;;;;;;;33.75;22.05;;;10.00;99.90;;;;;;5054268;28;20131;-80
2022/03/17 04:58:19;;;;;;;37.92;22.88;;;9.90;99.90;;;;;;5068688;28;20049;-80
2022/03/17 05:00:45;;;;;;;34.72;21.70;;;9.90;99.90;;;;;;5070280;28;20045;-80
2022/03/17 05:03:12;;;;;;;34.03;23.33;;;9.80;99.90;;;;;;5070410;28;20127;-79
2022/03/17 05:05:38;;;;;;;33.53;23.23;;;9.80;99.90;;;;;;5069578;28;20044;-80
2022/03/17 05:08:05;;;;;;;35.40;23.67;;;9.90;99.90;;;;;;5069739;28;20091;-80
2022/03/17 05:10:33;;;;;;;33.95;22.90;;;9.70;99.90;;;;;;5052181;28;20131;-80
2022/03/17 05:12:59;;;;;;;41.25;24.73;;;9.70;99.90;;;;;;5070296;28;20067;-80
2022/03/17 05:15:25;;;;;;;39.45;23.15;;;9.70;99.90;;;;;;5068517;28;20183;-80
2022/03/17 05:17:51;;;;;;;37.22;22.60;;;9.70;99.90;;;;;;5069515;28;20123;-79
2022/03/17 05:20:17;;;;;;;35.50;22.85;;;9.60;99.90;;;;;;5068452;28;20498;-80
2022/03/17 05:22:43;;;;;;;26.75;15.48;;;9.60;99.90;;;;;;5067727;28;20560;-80
2022/03/17 05:25:10;;;;;;;16.02;10.15;;;9.60;99.90;;;;;;5069311;28;20496;-79
2022/03/17 05:27:42;;;;;;;11.90;8.35;;;9.60;99.90;;;;;;5069074;28;20586;-80
2022/03/17 05:30:16;;;;;;;9.00;5.53;;;9.40;99.90;;;;;;5069361;28;20127;-80
2022/03/17 05:32:43;;;;;;;8.27;4.25;;;9.30;99.90;;;;;;5068334;28;20139;-79
2022/03/17 05:35:09;;;;;;;5.65;4.47;;;9.10;99.90;;;;;;5069180;28;20045;-79
2022/03/17 05:37:35;;;;;;;7.30;5.18;;;9.00;99.90;;;;;;5069638;28;20080;-79
2022/03/17 05:40:07;;;;;;;7.43;4.50;;;8.90;99.90;;;;;;5069062;28;20407;-82
2022/03/17 05:42:33;;;;;;;4.30;3.47;;;8.80;99.90;;;;;;5067831;28;20102;-81
2022/03/17 05:44:59;;;;;;;6.88;4.38;;;8.70;99.90;;;;;;5069292;28;20049;-80
2022/03/17 05:47:25;;;;;;;5.32;4.22;;;8.70;99.90;;;;;;5051163;28;20055;-80
2022/03/17 05:49:51;;;;;;;8.27;5.03;;;8.60;99.90;;;;;;5068099;28;20071;-81
2022/03/17 05:52:17;;;;;;;5.07;4.15;;;8.60;99.90;;;;;;5067448;28;20041;-81
2022/03/17 05:54:44;;;;;;;9.52;4.90;;;8.50;99.90;;;;;;5068138;28;20075;-80
2022/03/17 05:57:10;;;;;;;12.23;5.22;;;8.90;99.90;;;;;;5067589;28;20050;-80
2022/03/17 05:59:39;;;;;;;12.80;6.15;;;8.50;99.90;;;;;;5068290;28;20492;-79
2022/03/17 06:02:05;;;;;;;10.75;5.28;;;8.40;99.90;;;;;;5066844;28;20105;-81
2022/03/17 06:04:31;;;;;;;13.98;6.93;;;8.40;99.90;;;;;;5033656;28;20114;-80
2022/03/17 06:06:57;;;;;;;13.52;6.93;;;7.60;99.90;;;;;;5033990;28;20037;-81
2022/03/17 06:09:23;;;;;;;13.65;7.68;;;8.30;99.90;;;;;;5066532;28;20378;-81
2022/03/17 06:11:48;;;;;;;17.10;7.32;;;8.30;99.90;;;;;;5050719;28;20119;-82
2022/03/17 06:14:14;;;;;;;10.80;6.13;;;8.30;99.90;;;;;;5066860;28;20046;-82
2022/03/17 06:16:40;;;;;;;20.35;6.22;;;8.20;99.90;;;;;;5033733;28;20077;-81
2022/03/17 06:19:05;;;;;;;10.70;4.75;;;8.20;99.90;;;;;;5050021;28;20143;-80
2022/03/17 06:21:31;;;;;;;12.73;5.97;;;8.70;99.90;;;;;;5049689;28;20408;-80
2022/03/17 06:23:57;;;;;;;14.85;4.53;;;8.20;99.90;;;;;;5067411;28;20057;-81
2022/03/17 06:26:22;;;;;;;14.70;4.05;;;8.20;99.90;;;;;;5066279;28;20044;-79
2022/03/17 06:28:48;;;;;;;13.35;4.00;;;8.20;99.90;;;;;;5067777;28;20049;-80
2022/03/17 06:31:14;;;;;;;14.40;4.00;;;8.10;99.90;;;;;;5066223;28;20438;-79
2022/03/17 06:33:39;;;;;;;10.45;3.20;;;8.10;99.90;;;;;;5050040;28;20063;-80
2022/03/17 06:36:05;;;;;;;9.25;3.70;;;8.10;99.90;;;;;;5066524;28;20040;-80
2022/03/17 06:38:31;;;;;;;19.27;3.85;;;8.10;99.90;;;;;;5016803;28;20060;-81
2022/03/17 06:40:57;;;;;;;19.52;3.17;;;8.10;99.90;;;;;;5050345;28;20374;-80
2022/03/17 06:43:22;;;;;;;10.40;2.92;;;8.00;99.90;;;;;;5067547;28;20032;-79
2022/03/17 06:45:49;;;;;;;10.38;2.58;;;8.10;99.90;;;;;;5066993;28;20089;-79
2022/03/17 06:48:14;;;;;;;11.05;2.53;;;8.00;99.90;;;;;;5066188;28;20465;-79
2022/03/17 06:50:40;;;;;;;9.82;2.40;;;8.10;99.90;;;;;;5066275;28;20131;-80
2022/03/17 06:53:06;;;;;;;12.10;2.20;;;8.10;99.90;;;;;;5033783;28;20124;-78
2022/03/17 06:55:33;;;;;;;10.73;1.60;;;8.10;99.90;;;;;;5066354;28;20063;-79
2022/03/17 06:58:00;;;;;;;14.35;2.17;;;8.10;99.90;;;;;;5068224;28;20049;-79
2022/03/17 07:00:25;;;;;;;8.00;1.67;;;8.00;99.90;;;;;;5067180;28;20492;-79
2022/03/17 07:02:51;;;;;;;12.57;1.92;;;8.00;99.90;;;;;;5067720;28;20055;-78
2022/03/17 07:05:17;;;;;;;8.38;1.70;;;8.00;99.90;;;;;;5067062;28;20033;-79
2022/03/17 07:07:43;;;;;;;3.17;1.15;;;8.00;99.90;;;;;;5033105;28;20044;-79
2022/03/17 07:10:10;;;;;;;5.72;1.20;;;8.00;99.90;;;;;;5065998;28;20401;-79
2022/03/17 07:12:36;;;;;;;11.50;1.20;;;8.00;99.90;;;;;;5066220;28;20044;-79
2022/03/17 07:15:06;;;;;;;12.05;1.90;;;8.00;99.90;;;;;;5049787;28;20119;-80
2022/03/17 07:17:42;;;;;;;4.88;1.15;;;7.90;99.90;;;;;;5065338;28;20045;-79
2022/03/17 07:20:13;;;;;;;11.45;1.27;;;7.90;99.90;;;;;;5065885;28;20037;-79
2022/03/17 07:22:40;;;;;;;6.68;1.67;;;7.90;99.90;;;;;;5048835;28;20053;-79
2022/03/17 07:25:07;;;;;;;13.60;1.25;;;7.90;99.90;;;;;;5065473;28;20128;-79
2022/03/17 07:27:46;;;;;;;7.18;1.77;;;7.90;99.90;;;;;;5066069;28;20047;-79
2022/03/17 07:30:18;;;;;;;10.02;1.00;;;7.90;99.90;;;;;;5065457;28;20112;-79
2022/03/17 07:32:46;;;;;;;9.73;1.13;;;7.90;99.90;;;;;;5066010;28;20044;-79
2022/03/17 07:35:12;;;;;;;12.48;1.13;;;7.90;99.90;;;;;;5048784;28;20411;-79
2022/03/17 07:37:38;;;;;;;4.45;0.93;;;7.90;99.90;;;;;;5048786;28;20059;-79
2022/03/17 07:40:05;;;;;;;4.40;0.68;;;7.90;99.90;;;;;;5065274;28;20143;-79
2022/03/17 07:42:30;;;;;;;9.43;1.00;;;7.90;99.90;;;;;;5049010;28;20415;-79
2022/03/17 07:44:56;;;;;;;5.35;1.23;;;8.00;99.90;;;;;;5065646;28;20048;-80
2022/03/17 07:47:22;;;;;;;10.77;1.60;;;7.90;99.90;;;;;;5064483;28;20121;-79
2022/03/17 07:49:47;;;;;;;10.30;1.42;;;7.90;99.90;;;;;;5065625;28;20080;-79
2022/03/17 07:52:13;;;;;;;11.18;1.52;;;7.90;99.90;;;;;;5066093;28;20048;-78
2022/03/17 07:54:39;;;;;;;11.65;1.05;;;7.90;99.90;;;;;;5064978;28;20052;-79
2022/03/17 07:57:06;;;;;;;7.97;0.63;;;7.90;99.90;;;;;;5066794;28;20254;-80
2022/03/17 07:59:33;;;;;;;7.60;0.90;;;8.60;99.90;;;;;;5065377;28;20053;-79
2022/03/17 08:01:59;;;;;;;16.98;1.45;;;7.90;99.90;;;;;;5065337;28;20102;-79
2022/03/17 08:04:25;;;;;;;13.98;1.27;;;9.20;99.90;;;;;;5065003;28;20052;-79
2022/03/17 08:06:53;;;;;;;9.48;1.13;;;8.00;99.90;;;;;;5048907;28;20044;-79
2022/03/17 08:09:20;;;;;;;13.63;1.08;;;8.00;99.90;;;;;;5047584;28;20694;-79
2022/03/17 08:11:48;;;;;;;9.15;1.20;;;8.10;99.90;;;;;;5065251;28;20037;-79
2022/03/17 08:14:17;;;;;;;8.07;0.85;;;9.20;99.90;;;;;;5048645;28;20411;-79
2022/03/17 08:16:46;;;;;;;10.80;0.80;;;8.00;99.90;;;;;;5064543;28;20480;-80
2022/03/17 08:19:12;;;;;;;11.38;1.08;;;8.00;99.90;;;;;;5065169;28;20045;-78
2022/03/17 08:21:41;;;;;;;14.60;1.23;;;8.00;99.90;;;;;;5063776;28;20059;-78
2022/03/17 08:24:07;;;;;;;13.70;1.67;;;8.00;99.90;;;;;;5031536;28;20047;-78
2022/03/17 08:26:34;;;;;;;5.45;0.93;;;8.00;99.90;;;;;;5065780;28;20332;-78
2022/03/17 08:29:00;;;;;;;10.65;1.50;;;8.00;99.90;;;;;;5064914;28;20131;-78
2022/03/17 08:31:27;;;;;;;20.38;3.03;;;8.00;99.90;;;;;;5065107;28;20052;-77
2022/03/17 08:33:56;;;;;;;9.45;1.42;;;8.00;99.90;;;;;;5064998;28;20072;-78
2022/03/17 08:36:24;;;;;;;12.93;1.60;;;8.00;99.90;;;;;;5066061;28;20052;-78
2022/03/17 08:38:51;;;;;;;11.68;2.03;;;8.10;99.90;;;;;;5064236;28;20102;-78
2022/03/17 08:41:18;;;;;;;13.65;1.35;;;8.10;99.90;;;;;;5067026;28;20356;-79
2022/03/17 08:43:44;;;;;;;14.68;1.63;;;8.70;99.90;;;;;;5063889;28;20102;-78
2022/03/17 08:51:59;;;;;;;4.88;0.95;;;8.20;99.90;;;;;;5030410;28;20057;-78
2022/03/17 08:54:27;;;;;;;14.63;1.00;;;8.10;99.90;;;;;;5044291;28;20139;-78
2022/03/17 08:56:59;;;;;;;10.80;1.40;;;8.00;99.90;;;;;;5065251;28;20606;-79
2022/03/17 08:59:30;;;;;;;13.93;1.33;;;8.00;99.90;;;;;;5064451;28;20048;-77
2022/03/17 09:01:59;;;;;;;10.40;1.92;;;8.00;99.90;;;;;;5066185;28;20496;-79
2022/03/17 09:04:27;;;;;;;7.88;0.85;;;8.00;99.90;;;;;;5064120;28;20043;-79
2022/03/17 09:06:58;;;;;;;7.63;1.27;;;8.00;99.90;;;;;;5066607;28;20105;-78
2022/03/17 09:09:26;;;;;;;8.85;1.63;;;8.00;99.90;;;;;;5065683;28;20124;-79
2022/03/17 09:11:52;;;;;;;10.90;0.85;;;8.10;99.90;;;;;;5065418;28;20575;-78
2022/03/17 09:14:17;;;;;;;9.25;1.20;;;8.20;99.90;;;;;;5064781;28;20120;-79
2022/03/17 09:16:43;;;;;;;10.63;1.67;;;8.30;99.90;;;;;;5065330;28;20044;-77
2022/03/17 09:19:09;;;;;;;8.32;1.17;;;8.40;99.90;;;;;;5064628;28;20140;-77
2022/03/17 09:21:35;;;;;;;9.77;1.33;;;9.60;99.90;;;;;;5064837;28;20080;-78
2022/03/17 09:24:03;;;;;;;9.00;1.60;;;8.40;99.90;;;;;;5066149;28;20053;-77
2022/03/17 09:26:30;;;;;;;12.05;1.23;;;8.40;99.90;;;;;;5065537;28;20040;-78
2022/03/17 09:28:56;;;;;;;12.05;1.35;;;8.10;99.90;;;;;;5065390;28;20511;-78
2022/03/17 09:31:22;;;;;;;9.95;1.30;;;9.60;99.90;;;;;;5066057;28;20049;-78
2022/03/17 09:33:48;;;;;;;10.23;1.17;;;8.30;99.90;;;;;;5065279;28;20048;-78
2022/03/17 09:36:16;;;;;;;10.13;1.35;;;8.40;99.90;;;;;;5068758;28;20042;-79
2022/03/17 09:38:42;;;;;;;5.47;0.98;;;8.40;99.90;;;;;;5067054;28;20048;-79
2022/03/17 09:41:23;;;;;;;12.43;1.13;;;8.60;99.90;;;;;;5069466;28;20100;-78
2022/03/17 09:43:50;;;;;;;3.95;0.55;;;8.70;99.90;;;;;;5069088;28;20045;-78
2022/03/17 09:46:18;;;;;;;9.63;1.30;;;8.70;99.90;;;;;;5068748;28;20048;-78
2022/03/17 09:48:44;;;;;;;11.75;0.85;;;8.80;99.90;;;;;;5069022;28;20122;-78
2022/03/17 09:51:12;;;;;;;9.77;2.85;;;9.20;99.90;;;;;;5066721;28;20083;-78
2022/03/17 09:53:38;;;;;;;4.65;0.70;;;8.80;99.90;;;;;;5069219;28;20527;-78
2022/03/17 09:56:04;;;;;;;8.82;1.20;;;8.80;99.90;;;;;;5066503;28;20036;-79
2022/03/17 09:58:29;;;;;;;11.88;1.40;;;8.90;99.90;;;;;;5067851;28;20123;-79
2022/03/17 10:00:55;;;;;;;8.10;1.20;;;9.60;99.90;;;;;;5068726;28;20045;-76
2022/03/17 10:03:27;;;;;;;9.52;0.85;;;9.10;99.90;;;;;;5067347;28;20135;-77
2022/03/17 10:05:54;;;;;;;7.15;1.00;;;9.70;99.90;;;;;;5069071;28;20055;-77
2022/03/17 10:08:23;;;;;;;10.55;1.30;;;9.50;99.90;;;;;;5066651;28;20120;-77
2022/03/17 10:10:50;;;;;;;6.80;0.95;;;10.20;99.90;;;;;;5068805;28;20587;-77
2022/03/17 10:13:22;;;;;;;9.85;1.55;;;9.70;99.90;;;;;;5066599;28;20049;-78
2022/03/17 10:16:17;;;;;;;10.75;1.10;;;9.80;99.90;;;;;;5067454;28;20451;-79
2022/03/17 10:18:43;;;;;;;7.72;1.23;;;9.90;99.90;;;;;;5067265;28;20131;-77
2022/03/17 10:21:16;;;;;;;11.32;1.42;;;9.90;99.90;;;;;;5066685;28;20079;-78
2022/03/17 10:23:48;;;;;;;11.18;1.60;;;9.90;99.90;;;;;;5051152;28;20114;-77
2022/03/17 10:26:32;;;;;;;7.53;1.00;;;9.90;99.90;;;;;;5050300;28;20043;-78
2022/03/17 10:29:34;;;;;;;12.05;2.00;;;9.80;99.90;;;;;;5066663;28;20040;-78
2022/03/17 10:32:01;;;;;;;9.07;1.02;;;9.80;99.90;;;;;;5049978;28;20090;-78
2022/03/17 10:34:47;;;;;;;8.27;1.10;;;9.90;99.90;;;;;;5065851;28;20484;-78
2022/03/17 10:37:18;;;;;;;10.65;1.17;;;9.90;99.90;;;;;;5062680;28;20151;-78
2022/03/17 10:39:54;;;;;;;9.27;1.23;;;10.10;99.90;;;;;;5066535;28;20095;-79
2022/03/17 10:42:26;;;;;;;6.13;0.93;;;10.30;99.90;;;;;;5049819;28;20040;-78
2022/03/17 10:44:58;;;;;;;7.13;1.05;;;10.50;99.90;;;;;;5067292;28;20086;-78
2022/03/17 10:47:30;;;;;;;15.10;1.55;;;10.60;99.90;;;;;;5065069;28;20135;-78
2022/03/17 10:50:17;;;;;;;8.43;1.40;;;10.70;99.90;;;;;;5049683;28;20048;-78
2022/03/17 10:52:52;;;;;;;11.30;1.58;;;10.50;99.90;;;;;;5066646;28;20059;-78
2022/03/17 10:55:21;;;;;;;8.45;0.88;;;10.50;99.90;;;;;;5065511;28;20514;-78
2022/03/17 10:57:48;;;;;;;15.82;2.00;;;10.50;99.90;;;;;;5050152;28;20045;-79
2022/03/17 11:00:25;;;;;;;7.68;1.17;;;10.50;99.90;;;;;;5065639;28;20058;-77
2022/03/17 11:02:56;;;;;;;9.38;1.95;;;10.50;99.90;;;;;;5066088;28;20055;-78
2022/03/17 11:05:23;;;;;;;10.55;1.33;;;10.50;99.90;;;;;;5066850;28;20111;-78
2022/03/17 11:07:51;;;;;;;9.07;1.48;;;10.60;99.90;;;;;;5065708;28;20055;-78
2022/03/17 11:10:20;;;;;;;9.80;1.30;;;10.80;99.90;;;;;;5067059;28;20128;-77
2022/03/17 11:12:46;;;;;;;11.73;1.63;;;10.80;99.90;;;;;;5065389;28;20221;-78
2022/03/17 11:15:13;;;;;;;9.15;1.63;;;11.00;99.90;;;;;;5066260;28;20060;-79
2022/03/17 11:17:40;;;;;;;8.02;1.15;;;11.20;99.90;;;;;;5065657;28;20094;-78
2022/03/17 11:20:08;;;;;;;13.93;1.50;;;11.50;99.90;;;;;;5067036;28;20045;-79
2022/03/17 11:22:34;;;;;;;7.82;1.25;;;11.80;99.90;;;;;;5065583;28;20056;-79
2022/03/17 11:25:19;;;;;;;9.65;1.35;;;12.10;99.90;;;;;;5066809;28;20044;-77
2022/03/17 11:27:46;;;;;;;9.20;1.23;;;12.30;96.60;;;;;;5050239;28;20109;-78
2022/03/17 11:30:16;;;;;;;13.88;1.27;;;12.40;99.90;;;;;;5064968;28;20094;-78
2022/03/17 11:32:54;;;;;;;10.88;1.60;;;12.30;99.90;;;;;;5065190;28;20045;-78
2022/03/17 11:35:32;;;;;;;10.65;1.10;;;12.20;99.90;;;;;;5066974;28;20464;-78
2022/03/17 11:38:17;;;;;;;10.45;1.30;;;12.10;99.90;;;;;;5066133;28;20044;-78
2022/03/17 11:41:09;;;;;;;7.32;1.55;;;12.20;99.30;;;;;;5067556;28;20048;-78
2022/03/17 11:43:45;;;;;;;6.22;1.30;;;12.40;96.40;;;;;;5066704;28;20068;-78
2022/03/17 11:46:13;;;;;;;6.18;0.88;;;12.50;98.90;;;;;;5065291;28;20580;-78
2022/03/17 11:48:40;;;;;;;12.77;1.45;;;12.40;99.90;;;;;;5067258;28;20507;-78
2022/03/17 11:51:08;;;;;;;4.93;1.30;;;12.20;99.30;;;;;;5048179;28;20040;-79
2022/03/17 11:53:50;;;;;;;8.35;1.27;;;12.00;99.00;;;;;;5049492;28;20041;-79
2022/03/17 11:56:31;;;;;;;11.77;2.05;;;11.80;98.50;;;;;;5065461;28;20109;-79
2022/03/17 11:58:57;;;;;;;8.90;1.45;;;11.70;98.80;;;;;;5064389;28;20060;-78
2022/03/17 12:01:27;;;;;;;6.97;1.08;;;11.70;99.90;;;;;;5065770;28;20041;-78
2022/03/17 12:04:06;;;;;;;13.25;1.70;;;11.80;99.20;;;;;;5064389;28;20059;-78
2022/03/17 12:06:37;;;;;;;11.90;1.10;;;11.70;97.60;;;;;;5065532;28;20056;-78
2022/03/17 12:09:11;;;;;;;12.50;2.03;;;11.60;96.80;;;;;;5064613;28;20048;-78
2022/03/17 12:11:44;;;;;;;6.95;1.08;;;11.60;98.00;;;;;;5064415;28;20511;-78
2022/03/17 12:16:52;;;;;;;15.25;1.60;;;12.10;96.50;;;;;;5064073;28;20055;-78
2022/03/17 12:19:28;;;;;;;9.85;1.13;;;12.40;94.20;;;;;;5065395;28;20050;-79
2022/03/17 12:22:02;;;;;;;7.90;1.25;;;12.50;93.00;;;;;;5064215;28;20060;-78
2022/03/17 12:24:50;;;;;;;4.95;0.82;;;12.60;91.40;;;;;;5064746;28;20044;-78
2022/03/17 12:27:22;;;;;;;5.68;1.15;;;12.60;86.60;;;;;;5065636;28;20044;-78
2022/03/17 12:30:06;;;;;;;6.57;1.13;;;12.60;91.10;;;;;;5046965;28;20094;-79
2022/03/17 12:32:34;;;;;;;8.20;1.23;;;12.60;87.70;;;;;;5048362;28;20040;-78
2022/03/17 12:35:01;;;;;;;6.22;0.90;;;12.50;91.20;;;;;;5064748;28;20408;-78
2022/03/17 12:37:33;;;;;;;7.90;1.15;;;12.50;89.60;;;;;;5047684;28;20657;-78
2022/03/17 12:40:02;;;;;;;8.88;1.20;;;12.50;90.60;;;;;;5064877;28;20132;-80
2022/03/17 12:42:30;;;;;;;4.50;1.05;;;12.60;90.40;;;;;;5047263;28;20041;-79
2022/03/17 12:45:18;;;;;;;6.03;0.93;;;12.60;87.20;;;;;;5064737;28;20044;-77
2022/03/17 12:47:56;;;;;;;8.52;0.90;;;12.60;86.20;;;;;;5048312;28;20045;-78
2022/03/17 12:50:23;;;;;;;11.52;1.50;;;12.70;87.90;;;;;;5063771;28;20080;-79
2022/03/17 12:52:50;;;;;;;6.20;0.73;;;12.70;87.20;;;;;;5048295;28;20052;-78
2022/03/17 12:55:19;;;;;;;8.95;1.23;;;12.60;87.70;;;;;;5046731;28;20082;-78
2022/03/17 12:57:46;;;;;;;9.05;1.27;;;12.50;89.00;;;;;;5064913;28;20131;-79
2022/03/17 13:00:14;;;;;;;9.70;1.30;;;12.60;88.50;;;;;;5063860;28;20474;-78
2022/03/17 13:02:47;;;;;;;4.93;1.27;;;12.70;86.10;;;;;;5047973;28;20044;-78
2022/03/17 13:08:12;;;;;;;4.88;0.95;;;12.60;82.80;;;;;;5063828;28;20044;-78